CFG341 EDLW-EDDF
Flight info
| Callsign | CFG341 |
|---|---|
| Flight time | 0h 32m |
| Altitude | 17000 |
| Route | GMH8Q GMH DCT COL/N0342F110 T911 ROLIS ROLIS5D |
| Aircraft | A21N/M-SDE2E3FGHIRWXY/LB1 |
Departure
| Time | 2026-05-07 19:56 |
|---|---|
| Airport | Dortmund Airport (EDLW) |
Arrival
| Time | 2026-05-07 20:28 |
|---|---|
| Airport | Frankfurt Main Airport (EDDF) |
| Time | Latitude | Longitude | Altitude | Speed | Heading |
|---|---|---|---|---|---|
| 2026-05-07 19:45 | 51.51584 | 7.61293 | 464 ft | 0 kts | 330° |
| 2026-05-07 19:53 | 51.51584 | 7.61292 | 464 ft | 0 kts | 330° |
| 2026-05-07 19:53 | 51.51623 | 7.61248 | 466 ft | 9 kts | 311° |
| 2026-05-07 19:53 | 51.51605 | 7.61121 | 464 ft | 16 kts | 241° |
| 2026-05-07 19:54 | 51.51550 | 7.60935 | 466 ft | 20 kts | 237° |
| 2026-05-07 19:54 | 51.51505 | 7.60803 | 461 ft | 21 kts | 239° |
| 2026-05-07 19:54 | 51.51401 | 7.60512 | 460 ft | 21 kts | 240° |
| 2026-05-07 19:54 | 51.51358 | 7.60384 | 461 ft | 19 kts | 251° |
| 2026-05-07 19:55 | 51.51433 | 7.60239 | 459 ft | 18 kts | 330° |
| 2026-05-07 19:55 | 51.51489 | 7.60252 | 455 ft | 4 kts | 52° |
| 2026-05-07 19:55 | 51.51585 | 7.60518 | 457 ft | 70 kts | 60° |
| 2026-05-07 19:55 | 51.51965 | 7.61599 | 460 ft | 148 kts | 61° |
| 2026-05-07 19:56 | 51.52699 | 7.63783 | 1218 ft | 169 kts | 61° |
| 2026-05-07 19:56 | 51.53069 | 7.64916 | 1840 ft | 171 kts | 59° |
| 2026-05-07 19:56 | 51.53635 | 7.66595 | 2688 ft | 174 kts | 59° |
| 2026-05-07 19:56 | 51.54251 | 7.68339 | 3208 ft | 190 kts | 58° |
| 2026-05-07 19:57 | 51.54946 | 7.70204 | 3844 ft | 201 kts | 56° |
| 2026-05-07 19:57 | 51.55710 | 7.72139 | 4739 ft | 206 kts | 56° |
| 2026-05-07 19:57 | 51.56515 | 7.74096 | 5457 ft | 216 kts | 55° |
| 2026-05-07 19:57 | 51.57391 | 7.76137 | 6190 ft | 227 kts | 53° |
| 2026-05-07 19:58 | 51.58202 | 7.78355 | 6929 ft | 239 kts | 71° |
| 2026-05-07 19:58 | 51.58279 | 7.81049 | 7649 ft | 249 kts | 104° |
| 2026-05-07 19:58 | 51.57441 | 7.83509 | 8384 ft | 261 kts | 135° |
| 2026-05-07 19:58 | 51.55877 | 7.85067 | 8996 ft | 276 kts | 164° |
| 2026-05-07 19:59 | 51.53924 | 7.85255 | 9523 ft | 292 kts | 192° |
| 2026-05-07 19:59 | 51.52057 | 7.83978 | 10312 ft | 295 kts | 216° |
| 2026-05-07 19:59 | 51.50486 | 7.81762 | 10941 ft | 307 kts | 226° |
| 2026-05-07 19:59 | 51.48999 | 7.79317 | 11715 ft | 312 kts | 222° |
| 2026-05-07 20:00 | 51.47209 | 7.77290 | 12441 ft | 320 kts | 209° |
| 2026-05-07 20:00 | 51.45144 | 7.75761 | 12950 ft | 335 kts | 199° |
| 2026-05-07 20:00 | 51.42816 | 7.75172 | 13602 ft | 345 kts | 179° |
| 2026-05-07 20:00 | 51.40441 | 7.75914 | 14262 ft | 353 kts | 163° |
| 2026-05-07 20:01 | 51.38098 | 7.77196 | 14907 ft | 358 kts | 162° |
| 2026-05-07 20:01 | 51.35729 | 7.78532 | 15549 ft | 363 kts | 162° |
| 2026-05-07 20:01 | 51.33337 | 7.79890 | 16212 ft | 368 kts | 161° |
| 2026-05-07 20:01 | 51.30922 | 7.81313 | 16849 ft | 371 kts | 161° |
| 2026-05-07 20:02 | 51.28495 | 7.82732 | 16931 ft | 370 kts | 161° |
| 2026-05-07 20:02 | 51.26070 | 7.84130 | 16968 ft | 371 kts | 161° |
| 2026-05-07 20:02 | 51.23639 | 7.85489 | 17066 ft | 371 kts | 162° |
| 2026-05-07 20:02 | 51.21194 | 7.86826 | 17122 ft | 372 kts | 163° |
| 2026-05-07 20:03 | 51.18714 | 7.87917 | 17230 ft | 370 kts | 172° |
| 2026-05-07 20:03 | 51.16150 | 7.88003 | 17096 ft | 367 kts | 191° |
| 2026-05-07 20:03 | 51.13788 | 7.86767 | 17109 ft | 364 kts | 207° |
| 2026-05-07 20:03 | 51.11519 | 7.84979 | 17110 ft | 364 kts | 208° |
| 2026-05-07 20:04 | 51.09247 | 7.83179 | 17102 ft | 364 kts | 207° |
| 2026-05-07 20:04 | 51.06946 | 7.81371 | 17108 ft | 364 kts | 207° |
| 2026-05-07 20:04 | 51.04673 | 7.79603 | 17101 ft | 364 kts | 207° |
| 2026-05-07 20:04 | 51.02422 | 7.77863 | 17102 ft | 364 kts | 207° |
| 2026-05-07 20:05 | 51.00143 | 7.76108 | 17103 ft | 365 kts | 207° |
| 2026-05-07 20:05 | 50.97859 | 7.74352 | 17094 ft | 364 kts | 207° |
| 2026-05-07 20:05 | 50.95579 | 7.72602 | 17096 ft | 365 kts | 207° |
| 2026-05-07 20:05 | 50.93295 | 7.70848 | 17070 ft | 364 kts | 207° |
| 2026-05-07 20:06 | 50.91015 | 7.69100 | 16840 ft | 363 kts | 207° |
| 2026-05-07 20:06 | 50.88753 | 7.67367 | 16574 ft | 360 kts | 207° |
| 2026-05-07 20:06 | 50.86504 | 7.65646 | 16307 ft | 357 kts | 207° |
| 2026-05-07 20:06 | 50.84267 | 7.63935 | 16053 ft | 357 kts | 207° |
| 2026-05-07 20:07 | 50.82032 | 7.62226 | 15796 ft | 356 kts | 207° |
| 2026-05-07 20:07 | 50.79737 | 7.60777 | 15536 ft | 357 kts | 193° |
| 2026-05-07 20:07 | 50.77255 | 7.60563 | 15303 ft | 361 kts | 173° |
| 2026-05-07 20:07 | 50.74888 | 7.61663 | 15057 ft | 360 kts | 158° |
| 2026-05-07 20:08 | 50.72592 | 7.63204 | 14800 ft | 358 kts | 158° |
| 2026-05-07 20:08 | 50.70305 | 7.64761 | 14562 ft | 357 kts | 158° |
| 2026-05-07 20:08 | 50.68026 | 7.66303 | 14322 ft | 356 kts | 158° |
| 2026-05-07 20:08 | 50.65755 | 7.67826 | 14079 ft | 355 kts | 158° |
| 2026-05-07 20:09 | 50.63487 | 7.69335 | 13829 ft | 353 kts | 158° |
| 2026-05-07 20:09 | 50.61222 | 7.70835 | 13564 ft | 352 kts | 158° |
| 2026-05-07 20:09 | 50.58971 | 7.72323 | 13294 ft | 351 kts | 158° |
| 2026-05-07 20:10 | 50.54486 | 7.75283 | 12767 ft | 348 kts | 158° |
| 2026-05-07 20:10 | 50.52289 | 7.76731 | 12506 ft | 347 kts | 158° |
| 2026-05-07 20:10 | 50.50038 | 7.78214 | 12238 ft | 345 kts | 158° |
| 2026-05-07 20:10 | 50.47858 | 7.79648 | 11992 ft | 344 kts | 158° |
| 2026-05-07 20:11 | 50.45657 | 7.81110 | 11741 ft | 343 kts | 155° |
| 2026-05-07 20:11 | 50.43612 | 7.83034 | 11481 ft | 343 kts | 143° |
| 2026-05-07 20:11 | 50.41887 | 7.85596 | 11226 ft | 342 kts | 130° |
| 2026-05-07 20:11 | 50.40398 | 7.88499 | 10986 ft | 342 kts | 129° |
| 2026-05-07 20:12 | 50.38906 | 7.91394 | 10740 ft | 340 kts | 129° |
| 2026-05-07 20:12 | 50.37421 | 7.94254 | 10533 ft | 336 kts | 129° |
| 2026-05-07 20:12 | 50.35967 | 7.97044 | 10434 ft | 324 kts | 129° |
| 2026-05-07 20:12 | 50.34572 | 7.99716 | 10319 ft | 311 kts | 129° |
| 2026-05-07 20:13 | 50.33234 | 8.02278 | 10185 ft | 297 kts | 129° |
| 2026-05-07 20:13 | 50.31952 | 8.04730 | 10082 ft | 289 kts | 129° |
| 2026-05-07 20:13 | 50.30658 | 8.07204 | 10082 ft | 295 kts | 129° |
| 2026-05-07 20:13 | 50.29367 | 8.09672 | 10079 ft | 293 kts | 128° |
| 2026-05-07 20:14 | 50.28236 | 8.12346 | 9956 ft | 294 kts | 117° |
| 2026-05-07 20:14 | 50.27510 | 8.14860 | 9857 ft | 293 kts | 113° |
| 2026-05-07 20:14 | 50.26828 | 8.17314 | 9793 ft | 293 kts | 114° |
| 2026-05-07 20:14 | 50.26007 | 8.20224 | 9662 ft | 292 kts | 114° |
| 2026-05-07 20:15 | 50.25185 | 8.23116 | 9559 ft | 291 kts | 114° |
| 2026-05-07 20:15 | 50.24360 | 8.26010 | 9461 ft | 291 kts | 114° |
| 2026-05-07 20:15 | 50.23538 | 8.28888 | 9347 ft | 290 kts | 114° |
| 2026-05-07 20:15 | 50.22718 | 8.31753 | 9065 ft | 288 kts | 114° |
| 2026-05-07 20:16 | 50.21904 | 8.34600 | 8655 ft | 287 kts | 114° |
| 2026-05-07 20:16 | 50.21010 | 8.37371 | 8229 ft | 285 kts | 127° |
| 2026-05-07 20:16 | 50.19567 | 8.39424 | 7790 ft | 282 kts | 152° |
| 2026-05-07 20:16 | 50.17762 | 8.40558 | 7358 ft | 280 kts | 161° |
| 2026-05-07 20:17 | 50.15935 | 8.41578 | 6963 ft | 277 kts | 161° |
| 2026-05-07 20:17 | 50.14100 | 8.42456 | 6548 ft | 275 kts | 174° |
| 2026-05-07 20:17 | 50.12232 | 8.42165 | 6088 ft | 271 kts | 202° |
| 2026-05-07 20:17 | 50.10684 | 8.40564 | 5605 ft | 268 kts | 230° |
| 2026-05-07 20:18 | 50.09787 | 8.38096 | 5168 ft | 266 kts | 251° |
| 2026-05-07 20:18 | 50.09160 | 8.35398 | 5001 ft | 267 kts | 251° |
| 2026-05-07 20:18 | 50.08515 | 8.32679 | 4972 ft | 267 kts | 251° |
| 2026-05-07 20:18 | 50.07863 | 8.29981 | 4976 ft | 267 kts | 250° |
| 2026-05-07 20:19 | 50.07202 | 8.27274 | 4976 ft | 267 kts | 250° |
| 2026-05-07 20:19 | 50.06541 | 8.24575 | 4975 ft | 267 kts | 250° |
| 2026-05-07 20:19 | 50.05878 | 8.21870 | 4975 ft | 267 kts | 250° |
| 2026-05-07 20:19 | 50.05216 | 8.19172 | 4968 ft | 266 kts | 250° |
| 2026-05-07 20:20 | 50.04557 | 8.16486 | 4731 ft | 265 kts | 250° |
| 2026-05-07 20:20 | 50.03901 | 8.13806 | 4356 ft | 265 kts | 250° |
| 2026-05-07 20:20 | 50.03248 | 8.11141 | 4042 ft | 261 kts | 250° |
| 2026-05-07 20:20 | 50.02587 | 8.08470 | 3972 ft | 266 kts | 246° |
| 2026-05-07 20:21 | 50.01508 | 8.06218 | 3969 ft | 266 kts | 218° |
| 2026-05-07 20:21 | 49.99848 | 8.05000 | 3970 ft | 267 kts | 189° |
| 2026-05-07 20:21 | 49.98017 | 8.05159 | 3968 ft | 266 kts | 160° |
| 2026-05-07 20:21 | 49.96461 | 8.06661 | 3970 ft | 265 kts | 131° |
| 2026-05-07 20:22 | 49.95507 | 8.09090 | 3972 ft | 265 kts | 113° |
| 2026-05-07 20:22 | 49.94740 | 8.11691 | 3972 ft | 264 kts | 113° |
| 2026-05-07 20:22 | 49.94241 | 8.14403 | 4081 ft | 265 kts | 90° |
| 2026-05-07 20:22 | 49.94713 | 8.17090 | 3975 ft | 259 kts | 56° |
| 2026-05-07 20:23 | 49.95749 | 8.19291 | 3967 ft | 245 kts | 51° |
| 2026-05-07 20:23 | 49.96721 | 8.21336 | 3967 ft | 227 kts | 56° |
| 2026-05-07 20:23 | 49.97479 | 8.23529 | 3976 ft | 233 kts | 65° |
| 2026-05-07 20:23 | 49.98056 | 8.25831 | 3833 ft | 231 kts | 70° |
| 2026-05-07 20:24 | 49.98577 | 8.28112 | 3505 ft | 219 kts | 69° |
| 2026-05-07 20:24 | 49.99089 | 8.30273 | 3164 ft | 206 kts | 69° |
| 2026-05-07 20:24 | 49.99570 | 8.32304 | 2850 ft | 195 kts | 69° |
| 2026-05-07 20:24 | 50.00025 | 8.34223 | 2580 ft | 183 kts | 69° |
| 2026-05-07 20:25 | 50.00443 | 8.35989 | 2337 ft | 166 kts | 69° |
| 2026-05-07 20:25 | 50.00820 | 8.37578 | 2099 ft | 152 kts | 69° |
| 2026-05-07 20:25 | 50.01185 | 8.39111 | 1880 ft | 145 kts | 69° |
| 2026-05-07 20:25 | 50.01524 | 8.40542 | 1670 ft | 141 kts | 69° |
| 2026-05-07 20:26 | 50.01865 | 8.41976 | 1460 ft | 141 kts | 69° |
| 2026-05-07 20:26 | 50.02204 | 8.43402 | 1262 ft | 141 kts | 69° |
| 2026-05-07 20:26 | 50.02541 | 8.44819 | 1046 ft | 141 kts | 69° |
| 2026-05-07 20:26 | 50.02877 | 8.46242 | 834 ft | 139 kts | 70° |
| 2026-05-07 20:27 | 50.03207 | 8.47650 | 643 ft | 138 kts | 68° |
| 2026-05-07 20:27 | 50.03543 | 8.49047 | 457 ft | 138 kts | 69° |
| 2026-05-07 20:27 | 50.03874 | 8.50424 | 326 ft | 129 kts | 68° |
| 2026-05-07 20:27 | 50.04141 | 8.51517 | 331 ft | 79 kts | 69° |
| 2026-05-07 20:28 | 50.04240 | 8.52056 | 340 ft | 45 kts | 90° |
| 2026-05-07 20:28 | 50.04213 | 8.52356 | 345 ft | 18 kts | 100° |
| 2026-05-07 20:28 | 50.04192 | 8.52554 | 349 ft | 19 kts | 100° |
| 2026-05-07 20:28 | 50.04219 | 8.52753 | 355 ft | 20 kts | 66° |
| 2026-05-07 20:29 | 50.04264 | 8.52949 | 356 ft | 19 kts | 69° |
| 2026-05-07 20:29 | 50.04311 | 8.53139 | 360 ft | 18 kts | 69° |
| 2026-05-07 20:29 | 50.04357 | 8.53322 | 365 ft | 18 kts | 70° |
| 2026-05-07 20:29 | 50.04396 | 8.53510 | 367 ft | 19 kts | 81° |
| 2026-05-07 20:30 | 50.04409 | 8.53722 | 364 ft | 20 kts | 83° |
| 2026-05-07 20:30 | 50.04424 | 8.53949 | 362 ft | 22 kts | 83° |
| 2026-05-07 20:30 | 50.04441 | 8.54194 | 364 ft | 24 kts | 84° |
| 2026-05-07 20:30 | 50.04453 | 8.54456 | 362 ft | 25 kts | 92° |
| 2026-05-07 20:31 | 50.04384 | 8.54695 | 365 ft | 19 kts | 129° |
| 2026-05-07 20:31 | 50.04263 | 8.54801 | 363 ft | 21 kts | 160° |
| 2026-05-07 20:31 | 50.04138 | 8.54871 | 361 ft | 16 kts | 160° |
| 2026-05-07 20:31 | 50.04063 | 8.54915 | 364 ft | 9 kts | 159° |
| 2026-05-07 20:32 | 50.03994 | 8.54956 | 363 ft | 12 kts | 159° |
| 2026-05-07 20:32 | 50.03902 | 8.55010 | 364 ft | 16 kts | 160° |
| 2026-05-07 20:32 | 50.03846 | 8.55098 | 360 ft | 11 kts | 100° |
| 2026-05-07 20:32 | 50.03875 | 8.55219 | 362 ft | 14 kts | 71° |
| 2026-05-07 20:33 | 50.03916 | 8.55396 | 361 ft | 21 kts | 69° |
| 2026-05-07 20:33 | 50.03971 | 8.55626 | 366 ft | 24 kts | 70° |
| 2026-05-07 20:33 | 50.04031 | 8.55877 | 367 ft | 25 kts | 69° |
| 2026-05-07 20:33 | 50.04089 | 8.56117 | 362 ft | 23 kts | 70° |
| 2026-05-07 20:34 | 50.04140 | 8.56282 | 365 ft | 11 kts | 33° |
| 2026-05-07 20:34 | 50.04185 | 8.56269 | 361 ft | 7 kts | 340° |
| 2026-05-07 20:34 | 50.04244 | 8.56239 | 365 ft | 11 kts | 341° |
| 2026-05-07 20:34 | 50.04292 | 8.56171 | 366 ft | 6 kts | 275° |
| 2026-05-07 20:35 | 50.04297 | 8.56079 | 363 ft | 12 kts | 300° |
| 2026-05-07 20:35 | 50.04337 | 8.56056 | 361 ft | 8 kts | 345° |
| 2026-05-07 20:35 | 50.04407 | 8.56030 | 363 ft | 12 kts | 357° |
| 2026-05-07 20:35 | 50.04454 | 8.56127 | 362 ft | 13 kts | 70° |
| 2026-05-07 20:36 | 50.04489 | 8.56275 | 363 ft | 16 kts | 69° |
| 2026-05-07 20:36 | 50.04526 | 8.56425 | 361 ft | 13 kts | 69° |
| 2026-05-07 20:36 | 50.04519 | 8.56525 | 362 ft | 6 kts | 143° |
| 2026-05-07 20:36 | 50.04500 | 8.56531 | 361 ft | 6 kts | 169° |
| 2026-05-07 20:37 | 50.04482 | 8.56538 | 361 ft | 2 kts | 166° |
| 2026-05-07 20:37 | 50.04480 | 8.56538 | 361 ft | 0 kts | 166° |